createdAt,value
2023-01-21T00:02:12.461Z,11.40
2023-01-21T00:05:24.605Z,11.85
2023-01-21T00:08:36.964Z,10.68
2023-01-21T00:11:49.029Z,10.70
2023-01-21T00:15:01.079Z,11.05
2023-01-21T00:18:14.123Z,10.60
2023-01-21T00:21:26.198Z,11.08
2023-01-21T00:24:38.308Z,9.93
2023-01-21T00:27:50.305Z,10.58
2023-01-21T00:31:08.038Z,11.00
2023-01-21T00:34:21.576Z,9.58
2023-01-21T00:37:33.691Z,10.28
2023-01-21T00:40:45.886Z,9.53
2023-01-21T00:43:58.622Z,11.38
2023-01-21T00:47:11.222Z,12.70
2023-01-21T00:50:24.054Z,11.88
2023-01-21T00:53:38.323Z,10.80
2023-01-21T00:56:50.457Z,10.10
2023-01-21T01:00:02.710Z,12.70
2023-01-21T01:03:15.018Z,10.38
2023-01-21T01:06:29.848Z,9.83
2023-01-21T01:09:42.193Z,11.00
2023-01-21T01:12:54.152Z,9.90
2023-01-21T01:16:06.371Z,9.78
2023-01-21T01:19:19.328Z,12.60
2023-01-21T01:22:31.338Z,11.55
2023-01-21T01:25:43.431Z,10.03
2023-01-21T01:28:56.674Z,7.78
2023-01-21T01:32:11.760Z,9.25
2023-01-21T01:35:23.948Z,9.25
2023-01-21T01:38:36.892Z,9.18
2023-01-21T01:41:49.272Z,13.05
2023-01-21T01:45:08.262Z,11.03
2023-01-21T01:48:24.710Z,8.63
2023-01-21T01:51:46.792Z,9.65
2023-01-21T01:55:03.492Z,9.73
2023-01-21T01:58:20.217Z,9.05
2023-01-21T02:04:48.915Z,7.13
2023-01-21T02:08:01.034Z,9.25
2023-01-21T02:11:19.390Z,7.48
2023-01-21T02:14:31.697Z,9.20
2023-01-21T02:17:58.748Z,7.75
2023-01-21T02:21:50.616Z,7.20
2023-01-21T02:25:51.593Z,8.30
2023-01-21T02:29:57.199Z,7.50
2023-01-21T02:33:37.605Z,8.63
2023-01-21T02:37:12.695Z,7.05
2023-01-21T02:40:32.642Z,6.40
2023-01-21T02:43:51.951Z,8.03
2023-01-21T02:47:09.584Z,10.20
2023-01-21T02:50:25.353Z,6.73
2023-01-21T02:53:40.471Z,7.50
2023-01-21T02:56:52.715Z,8.63
2023-01-21T03:00:06.047Z,7.13
2023-01-21T03:04:00.245Z,7.28
2023-01-21T03:07:19.054Z,7.33
2023-01-21T03:10:36.985Z,6.05
2023-01-21T03:14:08.837Z,7.00
2023-01-21T03:17:28.873Z,7.10
2023-01-21T03:20:44.856Z,5.95
2023-01-21T03:24:00.061Z,6.63
2023-01-21T03:27:13.959Z,6.70
2023-01-21T03:30:29.762Z,5.55
2023-01-21T03:33:46.893Z,5.75
2023-01-21T03:37:04.134Z,7.35
2023-01-21T03:40:29.989Z,6.10
2023-01-21T03:43:42.245Z,5.33
2023-01-21T03:47:01.057Z,7.80
2023-01-21T03:50:19.349Z,5.33
2023-01-21T03:53:31.996Z,6.85
2023-01-21T03:56:44.266Z,5.68
2023-01-21T03:59:56.407Z,4.75
2023-01-21T04:03:08.581Z,4.60
2023-01-21T04:06:23.683Z,6.78
2023-01-21T04:09:36.071Z,4.13
2023-01-21T04:12:48.227Z,5.10
2023-01-21T04:16:00.176Z,5.70
2023-01-21T04:19:12.489Z,6.28
2023-01-21T04:22:24.795Z,4.58
2023-01-21T04:25:36.788Z,4.58
2023-01-21T04:28:49.004Z,5.25
2023-01-21T04:32:01.251Z,4.78
2023-01-21T04:35:15.629Z,5.15
2023-01-21T04:38:27.580Z,4.63
2023-01-21T04:41:39.601Z,4.08
2023-01-21T04:44:52.294Z,3.93
2023-01-21T04:48:04.110Z,4.45
2023-01-21T04:51:16.259Z,5.23
2023-01-21T04:54:28.318Z,3.05
2023-01-21T04:57:42.349Z,5.55
2023-01-21T05:00:54.897Z,4.18
2023-01-21T05:04:07.286Z,5.13
2023-01-21T05:07:21.632Z,4.15
2023-01-21T05:10:33.529Z,3.98
2023-01-21T05:13:45.532Z,4.58
2023-01-21T05:16:57.630Z,4.35
2023-01-21T05:20:11.275Z,3.55
2023-01-21T05:23:23.237Z,5.35
2023-01-21T05:26:35.398Z,3.63
2023-01-21T05:29:47.710Z,3.58
2023-01-21T05:33:01.384Z,11.60
2023-01-21T05:36:15.685Z,3.73
2023-01-21T05:39:27.715Z,3.58
2023-01-21T05:42:40.212Z,4.00
2023-01-21T05:45:52.558Z,5.25
2023-01-21T05:49:04.831Z,3.33
2023-01-21T05:52:17.350Z,5.13
2023-01-21T05:55:29.355Z,4.20
2023-01-21T05:58:42.019Z,4.15
2023-01-21T06:01:54.258Z,3.23
2023-01-21T06:05:06.196Z,4.20
2023-01-21T06:08:19.101Z,3.33
2023-01-21T06:11:31.396Z,3.48
2023-01-21T06:14:43.699Z,3.50
2023-01-21T06:17:55.805Z,3.05
2023-01-21T06:21:08.403Z,6.98
2023-01-21T06:24:24.330Z,4.98
2023-01-21T06:27:37.365Z,4.35
2023-01-21T06:30:49.566Z,4.68
2023-01-21T06:34:01.577Z,3.78
2023-01-21T06:37:13.672Z,4.83
2023-01-21T06:40:25.918Z,4.75
2023-01-21T06:43:38.376Z,5.55
2023-01-21T06:47:00.699Z,8.85
2023-01-21T06:50:04.729Z,23.58
2023-01-21T06:53:16.940Z,9.28
2023-01-21T06:56:31.516Z,5.18
2023-01-21T06:59:44.125Z,4.65
2023-01-21T07:02:58.250Z,3.55
2023-01-21T07:06:10.999Z,5.50
2023-01-21T07:09:23.614Z,6.63
2023-01-21T07:12:35.857Z,7.88
2023-01-21T07:15:47.976Z,6.13
2023-01-21T07:19:00.384Z,3.88
2023-01-21T07:22:12.756Z,4.33
2023-01-21T07:25:25.644Z,5.73
2023-01-21T07:28:37.684Z,4.48
2023-01-21T07:31:49.973Z,4.15
2023-01-21T07:35:02.296Z,5.40
2023-01-21T07:38:14.374Z,5.00
2023-01-21T07:41:28.825Z,4.75
2023-01-21T07:44:41.461Z,4.98
2023-01-21T07:47:53.566Z,7.18
2023-01-21T07:51:06.621Z,3.35
2023-01-21T07:54:19.938Z,4.50
2023-01-21T07:57:32.189Z,8.00
2023-01-21T08:00:44.374Z,3.40
2023-01-21T08:03:56.440Z,4.08
2023-01-21T08:07:11.850Z,7.18
2023-01-21T08:10:25.473Z,3.95
2023-01-21T08:13:37.472Z,4.58
2023-01-21T08:16:49.456Z,4.13
2023-01-21T08:20:01.630Z,3.90
2023-01-21T08:23:13.635Z,4.93
2023-01-21T08:26:25.901Z,5.60
2023-01-21T08:29:38.138Z,4.23
2023-01-21T08:32:50.237Z,6.95
2023-01-21T08:36:07.109Z,5.05
2023-01-21T08:39:21.014Z,4.55
2023-01-21T08:42:33.202Z,4.08
2023-01-21T08:45:45.544Z,5.15
2023-01-21T08:48:57.769Z,7.18
2023-01-21T08:52:10.456Z,6.60
2023-01-21T08:55:25.318Z,5.18
2023-01-21T08:58:39.301Z,8.80
2023-01-21T09:01:51.451Z,5.98
2023-01-21T09:05:03.627Z,7.33
2023-01-21T09:08:15.834Z,8.70
2023-01-21T09:11:28.228Z,5.20
2023-01-21T09:14:40.459Z,5.83
2023-01-21T09:17:52.601Z,6.30
2023-01-21T09:21:10.916Z,5.85
2023-01-21T09:24:23.735Z,7.25
2023-01-21T09:27:35.927Z,6.53
2023-01-21T09:30:47.911Z,5.63
2023-01-21T09:34:03.800Z,6.63
2023-01-21T09:37:15.937Z,5.88
2023-01-21T09:40:28.199Z,5.98
2023-01-21T09:43:45.933Z,7.73
2023-01-21T09:47:05.275Z,6.80
2023-01-21T09:50:21.939Z,8.65
2023-01-21T09:53:42.604Z,6.23
2023-01-21T09:57:23.246Z,7.25
2023-01-21T10:00:47.644Z,7.00
2023-01-21T10:04:04.250Z,9.85
2023-01-21T10:07:20.490Z,13.20
2023-01-21T10:10:37.919Z,10.17
2023-01-21T10:14:04.175Z,10.13
2023-01-21T10:17:22.490Z,13.40
2023-01-21T10:20:40.495Z,11.70
2023-01-21T10:23:57.727Z,8.93
2023-01-21T10:27:12.916Z,10.40
2023-01-21T10:30:35.645Z,11.40
2023-01-21T10:33:48.485Z,10.15
2023-01-21T10:37:10.001Z,13.58
2023-01-21T10:40:40.884Z,12.88
2023-01-21T10:43:58.895Z,13.30
2023-01-21T10:47:18.548Z,12.30
2023-01-21T10:50:41.599Z,15.40
2023-01-21T10:53:58.135Z,12.18
2023-01-21T10:57:16.701Z,14.60
2023-01-21T11:00:32.572Z,15.40
2023-01-21T11:03:48.753Z,12.98
2023-01-21T11:07:06.671Z,12.60
2023-01-21T11:10:26.572Z,12.53
2023-01-21T11:13:41.177Z,14.33
2023-01-21T11:16:55.603Z,14.10
2023-01-21T11:20:11.179Z,14.70
2023-01-21T11:23:35.632Z,16.50
2023-01-21T11:26:55.766Z,13.15
2023-01-21T11:30:31.450Z,12.23
2023-01-21T11:33:33.575Z,11.45
2023-01-21T11:36:59.600Z,15.08
2023-01-21T11:40:20.928Z,15.70
2023-01-21T11:43:46.623Z,12.83
2023-01-21T11:46:59.231Z,18.55
2023-01-21T11:50:23.272Z,12.13
2023-01-21T11:53:35.472Z,18.45
2023-01-21T11:56:51.105Z,15.48
2023-01-21T12:00:13.186Z,15.08
2023-01-21T12:03:29.198Z,13.93
2023-01-21T12:06:41.617Z,14.50
2023-01-21T12:10:02.352Z,15.08
2023-01-21T12:13:28.226Z,18.65
2023-01-21T12:16:44.555Z,18.45
2023-01-21T12:20:11.574Z,15.78
2023-01-21T12:23:54.243Z,15.90
2023-01-21T12:27:15.319Z,18.00
2023-01-21T12:30:36.307Z,20.48
2023-01-21T12:34:00.513Z,22.80
2023-01-21T12:37:18.423Z,18.45
2023-01-21T12:40:36.146Z,17.20
2023-01-21T12:43:54.567Z,16.08
2023-01-21T12:47:16.027Z,16.23
2023-01-21T12:50:35.405Z,18.50
2023-01-21T12:53:53.683Z,19.68
2023-01-21T12:57:11.435Z,16.25
2023-01-21T13:00:30.654Z,17.68
2023-01-21T13:03:52.894Z,15.58
2023-01-21T13:07:12.184Z,19.38
2023-01-21T13:10:30.689Z,19.25
2023-01-21T13:13:48.564Z,20.48
2023-01-21T13:17:05.141Z,17.60
2023-01-21T13:20:26.684Z,18.25
2023-01-21T13:23:44.535Z,16.70
2023-01-21T13:27:05.250Z,19.33
2023-01-21T13:30:27.528Z,23.73
2023-01-21T13:33:48.395Z,20.55
2023-01-21T13:37:13.411Z,21.28
2023-01-21T13:40:38.742Z,19.25
2023-01-21T13:44:11.098Z,22.08
2023-01-21T13:47:34.613Z,22.55
2023-01-21T13:51:19.076Z,20.03
2023-01-21T13:55:08.594Z,23.05
2023-01-21T13:58:26.684Z,25.30
2023-01-21T14:01:45.178Z,21.65
2023-01-21T14:05:02.312Z,23.02
2023-01-21T14:08:18.603Z,24.88
2023-01-21T14:11:34.322Z,24.88
2023-01-21T14:15:21.444Z,24.08
2023-01-21T14:19:07.056Z,27.40
2023-01-21T14:22:44.512Z,28.05
2023-01-21T14:26:26.744Z,25.13
2023-01-21T14:29:46.589Z,24.05
2023-01-21T14:33:02.883Z,24.63
2023-01-21T14:36:20.529Z,26.05
2023-01-21T14:39:51.542Z,25.35
2023-01-21T14:43:04.331Z,23.83
2023-01-21T14:46:33.681Z,35.30
2023-01-21T14:49:51.529Z,27.28
2023-01-21T14:53:04.308Z,35.90
2023-01-21T14:56:29.137Z,37.15
2023-01-21T14:59:46.266Z,37.35
2023-01-21T15:03:11.482Z,37.33
2023-01-21T15:06:28.064Z,33.35
2023-01-21T15:09:46.021Z,34.48
2023-01-21T15:13:02.442Z,36.93
2023-01-21T15:16:24.037Z,36.48
2023-01-21T15:19:39.009Z,32.48
2023-01-21T15:22:51.112Z,35.85
2023-01-21T15:26:37.263Z,32.53
2023-01-21T15:29:51.247Z,35.80
2023-01-21T15:33:03.956Z,35.00
2023-01-21T15:36:31.931Z,36.28
2023-01-21T15:39:44.879Z,29.23
2023-01-21T15:43:04.859Z,28.65
2023-01-21T15:46:29.286Z,29.95
2023-01-21T15:49:56.929Z,29.38
2023-01-21T15:53:36.671Z,31.73
2023-01-21T15:57:23.491Z,23.83
2023-01-21T16:00:43.942Z,26.93
2023-01-21T16:04:08.404Z,28.58
2023-01-21T16:07:29.627Z,32.98
2023-01-21T16:10:48.835Z,28.20
2023-01-21T16:14:07.844Z,27.65
2023-01-21T16:17:26.114Z,26.73
2023-01-21T16:20:39.315Z,28.53
2023-01-21T16:23:52.178Z,31.90
2023-01-21T16:27:22.933Z,29.43
2023-01-21T16:30:37.437Z,31.90
2023-01-21T16:33:50.675Z,29.30
2023-01-21T16:37:02.987Z,30.38
2023-01-21T16:40:35.984Z,33.88
2023-01-21T16:43:52.085Z,40.53
2023-01-21T16:47:04.479Z,33.60
2023-01-21T16:50:28.995Z,34.03
2023-01-21T16:53:41.117Z,32.13
2023-01-21T16:56:57.857Z,36.58
2023-01-21T17:00:16.666Z,34.73
2023-01-21T17:03:28.744Z,41.08
2023-01-21T17:06:40.801Z,34.28
2023-01-21T17:09:58.715Z,34.80
2023-01-21T17:13:18.688Z,33.00
2023-01-21T17:16:37.988Z,32.80
2023-01-21T17:19:51.141Z,34.90
2023-01-21T17:23:10.373Z,33.83
2023-01-21T17:26:26.876Z,37.08
2023-01-21T17:29:40.415Z,35.05
2023-01-21T17:33:00.428Z,34.25
2023-01-21T17:36:19.385Z,36.18
2023-01-21T17:40:06.369Z,35.95
2023-01-21T17:43:26.113Z,34.80
2023-01-21T17:46:38.952Z,36.20
2023-01-21T17:49:52.948Z,41.38
2023-01-21T17:53:10.545Z,37.48
2023-01-21T17:56:38.762Z,42.78
2023-01-21T17:59:52.905Z,47.10
2023-01-21T18:03:05.646Z,42.90
2023-01-21T18:06:24.837Z,50.18
2023-01-21T18:09:38.244Z,54.95
2023-01-21T18:12:50.545Z,42.68
2023-01-21T18:16:02.768Z,44.50
2023-01-21T18:19:31.409Z,46.33
2023-01-21T18:22:43.765Z,43.75
2023-01-21T18:25:58.023Z,46.55
2023-01-21T18:29:11.757Z,45.38
2023-01-21T18:32:24.526Z,45.70
2023-01-21T18:35:37.655Z,45.95
2023-01-21T18:38:50.004Z,49.55
2023-01-21T18:42:02.309Z,47.30
2023-01-21T18:45:21.277Z,48.68
2023-01-21T18:48:36.472Z,49.03
2023-01-21T18:51:48.987Z,43.80
2023-01-21T18:55:02.554Z,51.80
2023-01-21T18:58:19.565Z,74.38
2023-01-21T19:01:32.077Z,72.25
2023-01-21T19:04:44.459Z,85.33
2023-01-21T19:07:57.118Z,73.75
2023-01-21T19:11:09.496Z,78.68
2023-01-21T19:14:22.207Z,70.03
2023-01-21T19:17:38.353Z,64.28
2023-01-21T19:20:51.229Z,61.53
2023-01-21T19:24:03.513Z,61.78
2023-01-21T19:27:20.647Z,61.08
2023-01-21T19:30:35.690Z,58.88
2023-01-21T19:33:47.842Z,61.25
2023-01-21T19:37:00.742Z,59.15
2023-01-21T19:40:22.179Z,57.48
2023-01-21T19:43:34.726Z,70.38
2023-01-21T19:46:46.806Z,70.18
2023-01-21T19:49:59.419Z,72.10
2023-01-21T19:53:13.479Z,65.40
2023-01-21T19:56:29.517Z,68.63
2023-01-21T19:59:41.762Z,75.55
2023-01-21T20:02:54.482Z,75.80
2023-01-21T20:06:09.108Z,94.43
2023-01-21T20:09:21.897Z,87.80
2023-01-21T20:12:34.086Z,84.88
2023-01-21T20:15:48.662Z,81.30
2023-01-21T20:19:02.373Z,95.85
2023-01-21T20:22:14.937Z,92.48
2023-01-21T20:25:30.648Z,91.60
2023-01-21T20:28:49.650Z,106.65
2023-01-21T20:32:02.144Z,108.38
2023-01-21T20:35:17.039Z,104.23
2023-01-21T20:38:34.251Z,93.48
2023-01-21T20:41:46.355Z,93.95
2023-01-21T20:44:58.677Z,94.35
2023-01-21T20:48:14.584Z,84.60
2023-01-21T20:51:27.282Z,95.53
2023-01-21T20:54:40.750Z,94.40
2023-01-21T20:57:53.658Z,94.28
2023-01-21T21:01:06.084Z,94.67
2023-01-21T21:04:18.475Z,90.30
2023-01-21T21:07:30.485Z,88.15
2023-01-21T21:10:43.458Z,84.48
2023-01-21T21:13:56.717Z,98.00
2023-01-21T21:17:09.493Z,93.48
2023-01-21T21:20:27.586Z,87.08
2023-01-21T21:23:39.698Z,78.58
2023-01-21T21:26:51.992Z,80.03
2023-01-21T21:30:04.241Z,85.55
2023-01-21T21:33:24.263Z,69.03
2023-01-21T21:36:36.632Z,76.83
2023-01-21T21:39:48.923Z,105.63
2023-01-21T21:43:16.067Z,80.65
2023-01-21T21:46:42.721Z,74.15
2023-01-21T21:49:55.019Z,75.40
2023-01-21T21:53:08.282Z,69.40
2023-01-21T21:56:23.380Z,70.48
2023-01-21T21:59:35.833Z,71.55
2023-01-21T22:02:48.042Z,71.20
2023-01-21T22:06:03.065Z,70.05
2023-01-21T22:09:15.588Z,66.43
2023-01-21T22:12:27.717Z,61.38
2023-01-21T22:15:39.936Z,59.65
2023-01-21T22:18:52.410Z,60.08
2023-01-21T22:22:04.778Z,57.45
2023-01-21T22:25:17.719Z,63.03
2023-01-21T22:28:30.435Z,64.13
2023-01-21T22:31:43.664Z,65.65
2023-01-21T22:34:56.010Z,63.40
2023-01-21T22:38:08.249Z,61.33
2023-01-21T22:41:23.580Z,58.95
2023-01-21T22:44:35.895Z,63.18
2023-01-21T22:47:47.946Z,58.88
2023-01-21T22:51:02.542Z,62.98
2023-01-21T22:54:15.748Z,63.38
2023-01-21T22:57:28.356Z,65.90
2023-01-21T23:00:44.908Z,67.65
2023-01-21T23:03:57.124Z,67.38
2023-01-21T23:07:09.479Z,63.60
2023-01-21T23:10:22.134Z,64.63
2023-01-21T23:13:34.729Z,64.53
2023-01-21T23:16:47.119Z,66.25
2023-01-21T23:19:59.128Z,62.20
2023-01-21T23:23:11.345Z,63.38
2023-01-21T23:26:24.403Z,64.35
2023-01-21T23:29:37.830Z,63.13
2023-01-21T23:32:49.795Z,62.40
2023-01-21T23:36:05.111Z,66.00
2023-01-21T23:39:17.089Z,66.95
2023-01-21T23:42:29.214Z,61.60
2023-01-21T23:45:41.580Z,61.78
2023-01-21T23:48:53.804Z,69.95
2023-01-21T23:52:08.062Z,63.30
2023-01-21T23:55:20.364Z,65.75
2023-01-21T23:58:32.364Z,68.65
